createdAt,value
2023-02-11T00:01:10.251Z,7.34
2023-02-11T00:03:32.021Z,7.35
2023-02-11T00:06:03.438Z,7.34
2023-02-11T00:08:25.781Z,7.32
2023-02-11T00:10:53.068Z,7.34
2023-02-11T00:13:14.709Z,7.33
2023-02-11T00:15:37.265Z,7.33
2023-02-11T00:17:58.886Z,7.34
2023-02-11T00:20:21.035Z,7.35
2023-02-11T00:22:42.812Z,7.39
2023-02-11T00:25:05.612Z,7.37
2023-02-11T00:27:27.263Z,7.35
2023-02-11T00:29:49.587Z,7.37
2023-02-11T00:32:11.267Z,7.38
2023-02-11T00:34:33.366Z,7.36
2023-02-11T00:36:57.242Z,7.35
2023-02-11T00:39:18.823Z,7.34
2023-02-11T00:41:40.621Z,7.34
2023-02-11T00:44:03.002Z,7.32
2023-02-11T00:46:25.024Z,7.33
2023-02-11T00:48:46.785Z,7.35
2023-02-11T00:51:08.998Z,7.37
2023-02-11T00:53:31.751Z,7.37
2023-02-11T00:55:53.472Z,7.39
2023-02-11T00:58:15.168Z,7.41
2023-02-11T01:00:37.258Z,7.37
2023-02-11T01:02:59.014Z,7.37
2023-02-11T01:05:21.324Z,7.36
2023-02-11T01:07:43.368Z,7.34
2023-02-11T01:10:05.538Z,7.36
2023-02-11T01:12:27.183Z,7.40
2023-02-11T01:14:48.886Z,7.38
2023-02-11T01:17:12.864Z,7.38
2023-02-11T01:19:34.470Z,7.37
2023-02-11T01:21:56.070Z,7.37
2023-02-11T01:24:17.705Z,7.35
2023-02-11T01:26:39.312Z,7.32
2023-02-11T01:29:01.194Z,7.32
2023-02-11T01:31:22.912Z,7.35
2023-02-11T01:33:44.599Z,7.35
2023-02-11T01:36:07.865Z,7.34
2023-02-11T01:38:30.058Z,7.36
2023-02-11T01:41:00.894Z,7.36
2023-02-11T01:43:28.167Z,7.34
2023-02-11T01:46:34.369Z,7.34
2023-02-11T01:49:04.418Z,7.28
2023-02-11T01:51:36.505Z,7.28
2023-02-11T01:54:18.352Z,7.24
2023-02-11T01:57:07.786Z,7.19
2023-02-11T01:59:47.951Z,7.19
2023-02-11T02:02:17.395Z,7.20
2023-02-11T02:04:55.254Z,7.21
2023-02-11T02:07:32.652Z,7.17
2023-02-11T02:10:08.152Z,7.17
2023-02-11T02:12:31.102Z,7.18
2023-02-11T02:15:09.178Z,7.17
2023-02-11T02:17:46.158Z,7.21
2023-02-11T02:20:32.506Z,7.23
2023-02-11T02:23:16.122Z,7.22
2023-02-11T02:26:27.177Z,7.20
2023-02-11T02:29:25.390Z,7.19
2023-02-11T02:32:26.763Z,7.12
2023-02-11T02:35:19.857Z,7.08
2023-02-11T02:37:59.911Z,7.10
2023-02-11T02:40:32.351Z,7.09
2023-02-11T02:42:57.650Z,7.07
2023-02-11T02:45:19.970Z,7.06
2023-02-11T02:47:41.600Z,7.03
2023-02-11T02:50:07.735Z,7.04
2023-02-11T02:52:47.343Z,7.06
2023-02-11T02:55:33.833Z,7.06
2023-02-11T02:58:35.636Z,7.07
2023-02-11T03:01:23.010Z,7.10
2023-02-11T03:04:38.580Z,7.06
2023-02-11T03:07:22.377Z,7.05
2023-02-11T03:09:55.122Z,7.03
2023-02-11T03:12:17.935Z,6.99
2023-02-11T03:14:41.790Z,6.97
2023-02-11T03:17:07.838Z,6.94
2023-02-11T03:19:37.587Z,6.95
2023-02-11T03:22:00.740Z,6.94
2023-02-11T03:24:38.304Z,6.89
2023-02-11T03:27:15.157Z,6.89
2023-02-11T03:30:14.800Z,6.89
2023-02-11T03:32:49.271Z,6.86
2023-02-11T03:35:21.520Z,6.85
2023-02-11T03:37:54.293Z,6.82
2023-02-11T03:40:24.925Z,6.82
2023-02-11T03:42:58.943Z,6.84
2023-02-11T03:45:24.759Z,6.82
2023-02-11T03:47:57.660Z,6.81
2023-02-11T03:50:22.111Z,6.82
2023-02-11T03:52:45.152Z,6.77
2023-02-11T03:55:17.353Z,6.77
2023-02-11T03:57:39.297Z,6.72
2023-02-11T04:00:01.338Z,6.70
2023-02-11T04:02:38.174Z,6.67
2023-02-11T04:05:00.341Z,6.64
2023-02-11T04:07:22.207Z,6.65
2023-02-11T04:09:43.804Z,6.65
2023-02-11T04:12:05.798Z,6.65
2023-02-11T04:14:27.470Z,6.64
2023-02-11T04:16:49.027Z,6.63
2023-02-11T04:19:10.698Z,6.66
2023-02-11T04:21:32.347Z,6.66
2023-02-11T04:23:53.878Z,6.65
2023-02-11T04:26:15.530Z,6.66
2023-02-11T04:28:37.174Z,6.65
2023-02-11T04:30:58.963Z,6.68
2023-02-11T04:33:20.595Z,6.69
2023-02-11T04:35:42.315Z,6.68
2023-02-11T04:38:04.018Z,6.71
2023-02-11T04:40:25.624Z,6.72
2023-02-11T04:42:47.230Z,6.73
2023-02-11T04:45:09.360Z,6.75
2023-02-11T04:47:30.999Z,6.78
2023-02-11T04:49:52.647Z,6.79
2023-02-11T04:52:14.356Z,6.81
2023-02-11T04:54:35.968Z,6.79
2023-02-11T04:56:57.603Z,6.79
2023-02-11T04:59:19.220Z,6.78
2023-02-11T05:01:41.096Z,6.82
2023-02-11T05:04:02.843Z,6.82
2023-02-11T05:06:25.069Z,6.81
2023-02-11T05:08:46.751Z,6.82
2023-02-11T05:11:16.998Z,6.84
2023-02-11T05:13:38.695Z,6.81
2023-02-11T05:16:01.145Z,6.84
2023-02-11T05:18:24.014Z,6.85
2023-02-11T05:20:45.672Z,6.86
2023-02-11T05:23:07.777Z,6.86
2023-02-11T05:25:29.422Z,6.86
2023-02-11T05:27:51.142Z,6.89
2023-02-11T05:30:13.160Z,6.88
2023-02-11T05:32:34.779Z,6.90
2023-02-11T05:34:56.522Z,6.92
2023-02-11T05:37:18.306Z,6.91
2023-02-11T05:39:39.996Z,6.91
2023-02-11T05:42:01.674Z,6.94
2023-02-11T05:44:23.346Z,6.95
2023-02-11T05:46:45.071Z,6.95
2023-02-11T05:49:06.718Z,6.97
2023-02-11T05:51:28.433Z,6.98
2023-02-11T05:53:50.016Z,6.98
2023-02-11T05:56:12.469Z,7.00
2023-02-11T05:58:34.211Z,7.02
2023-02-11T06:00:56.528Z,7.03
2023-02-11T06:03:18.290Z,7.04
2023-02-11T06:05:42.042Z,7.05
2023-02-11T06:08:03.811Z,7.04
2023-02-11T06:10:25.960Z,7.05
2023-02-11T06:12:47.761Z,7.06
2023-02-11T06:15:09.628Z,7.11
2023-02-11T06:17:34.072Z,7.14
2023-02-11T06:19:55.612Z,7.09
2023-02-11T06:22:17.447Z,7.11
2023-02-11T06:24:59.812Z,7.13
2023-02-11T06:27:21.040Z,7.16
2023-02-11T06:29:42.672Z,7.15
2023-02-11T06:32:04.522Z,7.15
2023-02-11T06:34:27.356Z,7.15
2023-02-11T06:36:48.976Z,7.14
2023-02-11T06:39:13.087Z,7.17
2023-02-11T06:41:34.842Z,7.15
2023-02-11T06:43:56.554Z,7.12
2023-02-11T06:46:18.255Z,7.11
2023-02-11T06:48:41.661Z,7.13
2023-02-11T06:51:09.529Z,7.10
2023-02-11T06:53:35.480Z,7.12
2023-02-11T06:56:01.705Z,7.15
2023-02-11T06:58:23.323Z,7.14
2023-02-11T07:00:45.034Z,7.17
2023-02-11T07:03:06.714Z,7.18
2023-02-11T07:05:28.495Z,7.19
2023-02-11T07:07:50.148Z,7.17
2023-02-11T07:10:11.850Z,7.20
2023-02-11T07:12:33.456Z,7.23
2023-02-11T07:14:57.016Z,7.25
2023-02-11T07:17:18.624Z,7.24
2023-02-11T07:19:40.266Z,7.25
2023-02-11T07:22:01.885Z,7.25
2023-02-11T07:24:23.512Z,7.27
2023-02-11T07:26:45.240Z,7.26
2023-02-11T07:29:07.152Z,7.26
2023-02-11T07:31:30.845Z,7.26
2023-02-11T07:33:56.091Z,7.29
2023-02-11T07:36:17.811Z,7.32
2023-02-11T07:38:40.355Z,7.29
2023-02-11T07:41:07.894Z,7.28
2023-02-11T07:43:31.007Z,7.33
2023-02-11T07:45:52.965Z,7.32
2023-02-11T07:48:14.714Z,7.32
2023-02-11T07:50:36.373Z,7.35
2023-02-11T07:52:57.941Z,7.38
2023-02-11T07:55:19.582Z,7.42
2023-02-11T07:57:41.288Z,7.44
2023-02-11T08:00:05.520Z,7.44
2023-02-11T08:02:32.322Z,7.47
2023-02-11T08:04:53.935Z,7.51
2023-02-11T08:07:18.048Z,7.49
2023-02-11T08:09:39.629Z,7.53
2023-02-11T08:12:01.580Z,7.54
2023-02-11T08:14:25.143Z,7.54
2023-02-11T08:16:46.798Z,7.58
2023-02-11T08:19:14.730Z,7.56
2023-02-11T08:21:36.356Z,7.57
2023-02-11T08:23:58.089Z,7.57
2023-02-11T08:26:29.802Z,7.57
2023-02-11T08:28:54.282Z,7.55
2023-02-11T08:31:19.175Z,7.53
2023-02-11T08:33:41.673Z,7.54
2023-02-11T08:36:14.166Z,7.60
2023-02-11T08:38:35.873Z,7.62
2023-02-11T08:41:00.764Z,7.64
2023-02-11T08:43:23.599Z,7.63
2023-02-11T08:45:45.288Z,7.64
2023-02-11T08:48:06.966Z,7.68
2023-02-11T08:50:28.565Z,7.75
2023-02-11T08:52:51.845Z,7.80
2023-02-11T08:55:13.559Z,7.82
2023-02-11T08:57:35.132Z,7.86
2023-02-11T08:59:56.856Z,7.90
2023-02-11T09:02:18.664Z,7.95
2023-02-11T09:04:41.299Z,8.02
2023-02-11T09:07:04.755Z,8.02
2023-02-11T09:09:26.429Z,8.06
2023-02-11T09:11:48.270Z,8.07
2023-02-11T09:14:22.074Z,8.11
2023-02-11T09:16:44.259Z,8.15
2023-02-11T09:19:06.048Z,8.18
2023-02-11T09:21:28.816Z,8.20
2023-02-11T09:23:50.590Z,8.23
2023-02-11T09:26:31.975Z,8.28
2023-02-11T09:28:53.702Z,8.29
2023-02-11T09:31:23.606Z,8.34
2023-02-11T09:33:48.714Z,8.36
2023-02-11T09:36:10.334Z,8.42
2023-02-11T09:38:33.012Z,8.46
2023-02-11T09:40:54.838Z,8.48
2023-02-11T09:43:22.510Z,8.52
2023-02-11T09:45:44.154Z,8.53
2023-02-11T09:48:17.471Z,8.59
2023-02-11T09:50:44.262Z,8.57
2023-02-11T09:53:23.986Z,8.57
2023-02-11T09:55:55.635Z,8.56
2023-02-11T09:58:27.484Z,8.61
2023-02-11T10:01:16.451Z,8.67
2023-02-11T10:04:07.244Z,8.68
2023-02-11T10:06:45.451Z,8.71
2023-02-11T10:09:50.607Z,8.73
2023-02-11T10:12:35.548Z,8.79
2023-02-11T10:15:21.630Z,8.79
2023-02-11T10:18:14.359Z,8.80
2023-02-11T10:21:05.022Z,8.91
2023-02-11T10:23:33.441Z,8.95
2023-02-11T10:25:59.037Z,8.97
2023-02-11T10:28:28.947Z,9.02
2023-02-11T10:31:02.965Z,9.08
2023-02-11T10:33:55.192Z,9.06
2023-02-11T10:36:19.441Z,9.00
2023-02-11T10:38:41.080Z,8.95
2023-02-11T10:41:03.170Z,8.95
2023-02-11T10:43:30.719Z,8.96
2023-02-11T10:45:56.086Z,8.97
2023-02-11T10:48:52.868Z,9.00
2023-02-11T10:51:28.546Z,8.98
2023-02-11T10:54:21.157Z,8.95
2023-02-11T10:56:50.833Z,8.93
2023-02-11T10:59:30.442Z,8.93
2023-02-11T11:02:21.296Z,8.95
2023-02-11T11:04:45.169Z,9.00
2023-02-11T11:07:33.163Z,9.08
2023-02-11T11:10:06.779Z,9.10
2023-02-11T11:12:44.494Z,9.09
2023-02-11T11:15:10.711Z,9.15
2023-02-11T11:17:32.342Z,9.22
2023-02-11T11:19:53.901Z,9.26
2023-02-11T11:22:22.934Z,9.36
2023-02-11T11:24:46.681Z,9.31
2023-02-11T11:27:19.545Z,9.34
2023-02-11T11:29:55.373Z,9.43
2023-02-11T11:32:27.945Z,9.52
2023-02-11T11:34:56.660Z,9.60
2023-02-11T11:37:30.696Z,9.71
2023-02-11T11:40:22.657Z,9.77
2023-02-11T11:42:44.478Z,9.77
2023-02-11T11:45:15.222Z,9.80
2023-02-11T11:48:00.409Z,9.80
2023-02-11T11:50:41.676Z,9.80
2023-02-11T11:53:29.571Z,9.81
2023-02-11T11:56:03.793Z,9.85
2023-02-11T11:58:25.554Z,9.86
2023-02-11T12:01:15.082Z,9.92
2023-02-11T12:04:05.497Z,9.99
2023-02-11T12:07:03.779Z,10.13
2023-02-11T12:09:58.916Z,10.33
2023-02-11T12:12:43.779Z,10.46
2023-02-11T12:15:58.982Z,10.60
2023-02-11T12:18:55.271Z,10.68
2023-02-11T12:21:53.941Z,10.71
2023-02-11T12:24:29.534Z,10.68
2023-02-11T12:27:15.731Z,10.68
2023-02-11T12:30:19.025Z,10.66
2023-02-11T12:33:23.011Z,10.71
2023-02-11T12:35:59.233Z,10.75
2023-02-11T12:38:54.761Z,10.84
2023-02-11T12:42:16.123Z,10.88
2023-02-11T12:45:18.590Z,11.00
2023-02-11T12:48:13.041Z,11.03
2023-02-11T12:51:10.244Z,11.10
2023-02-11T12:53:37.920Z,11.13
2023-02-11T12:56:12.620Z,11.12
2023-02-11T12:58:44.904Z,11.10
2023-02-11T13:01:26.263Z,11.06
2023-02-11T13:04:06.639Z,11.12
2023-02-11T13:06:41.818Z,11.17
2023-02-11T13:09:16.666Z,11.19
2023-02-11T13:11:43.122Z,11.23
2023-02-11T13:14:17.273Z,11.28
2023-02-11T13:16:46.289Z,11.38
2023-02-11T13:19:14.053Z,11.49
2023-02-11T13:22:14.648Z,11.51
2023-02-11T13:24:49.254Z,11.49
2023-02-11T13:27:36.896Z,11.49
2023-02-11T13:30:40.722Z,11.47
2023-02-11T13:33:17.045Z,11.47
2023-02-11T13:35:43.979Z,11.50
2023-02-11T13:38:25.456Z,11.51
2023-02-11T13:41:15.192Z,11.52
2023-02-11T13:43:37.168Z,11.56
2023-02-11T13:46:12.827Z,11.63
2023-02-11T13:48:45.460Z,11.63
2023-02-11T13:51:12.917Z,11.62
2023-02-11T13:53:56.437Z,11.60
2023-02-11T13:56:36.085Z,11.64
2023-02-11T13:59:02.547Z,11.63
2023-02-11T14:02:12.532Z,11.71
2023-02-11T14:04:53.263Z,11.71
2023-02-11T14:07:45.691Z,11.74
2023-02-11T14:10:42.110Z,11.73
2023-02-11T14:13:24.499Z,11.71
2023-02-11T14:15:46.600Z,11.70
2023-02-11T14:18:36.318Z,11.71
2023-02-11T14:21:23.758Z,11.71
2023-02-11T14:23:46.923Z,11.67
2023-02-11T14:26:20.866Z,11.64
2023-02-11T14:28:46.697Z,11.61
2023-02-11T14:31:18.135Z,11.62
2023-02-11T14:34:07.897Z,11.68
2023-02-11T14:37:00.170Z,11.66
2023-02-11T14:39:40.372Z,11.64
2023-02-11T14:42:04.347Z,11.63
2023-02-11T14:44:31.369Z,11.64
2023-02-11T14:46:55.139Z,11.61
2023-02-11T14:49:29.245Z,11.58
2023-02-11T14:51:56.167Z,11.55
2023-02-11T14:54:25.226Z,11.55
2023-02-11T14:56:46.947Z,11.53
2023-02-11T14:59:22.097Z,11.51
2023-02-11T15:01:50.708Z,11.50
2023-02-11T15:04:32.979Z,11.50
2023-02-11T15:06:59.457Z,11.49
2023-02-11T15:09:48.195Z,11.48
2023-02-11T15:12:28.439Z,11.46
2023-02-11T15:14:55.250Z,11.43
2023-02-11T15:17:23.625Z,11.40
2023-02-11T15:19:53.149Z,11.35
2023-02-11T15:22:22.409Z,11.33
2023-02-11T15:24:44.700Z,11.27
2023-02-11T15:27:11.785Z,11.25
2023-02-11T15:29:42.830Z,11.23
2023-02-11T15:32:17.592Z,11.23
2023-02-11T15:34:40.145Z,11.24
2023-02-11T15:37:04.404Z,11.22
2023-02-11T15:39:36.871Z,11.19
2023-02-11T15:42:25.134Z,11.11
2023-02-11T15:44:56.278Z,11.10
2023-02-11T15:47:22.392Z,11.09
2023-02-11T15:49:46.803Z,11.08
2023-02-11T15:52:08.621Z,11.06
2023-02-11T15:54:32.159Z,11.04
2023-02-11T15:57:02.495Z,11.03
2023-02-11T15:59:49.020Z,11.00
2023-02-11T16:02:31.657Z,10.96
2023-02-11T16:05:09.165Z,10.95
2023-02-11T16:07:49.710Z,10.93
2023-02-11T16:10:30.741Z,10.89
2023-02-11T16:13:13.694Z,10.87
2023-02-11T16:15:38.119Z,10.85
2023-02-11T16:18:02.110Z,10.81
2023-02-11T16:20:23.752Z,10.79
2023-02-11T16:22:46.844Z,10.79
2023-02-11T16:25:20.613Z,10.77
2023-02-11T16:27:43.158Z,10.74
2023-02-11T16:30:07.102Z,10.72
2023-02-11T16:32:30.449Z,10.68
2023-02-11T16:34:57.825Z,10.66
2023-02-11T16:37:19.578Z,10.67
2023-02-11T16:39:41.261Z,10.66
2023-02-11T16:42:06.421Z,10.62
2023-02-11T16:44:29.772Z,10.59
2023-02-11T16:46:52.769Z,10.57
2023-02-11T16:49:27.745Z,10.56
2023-02-11T16:51:51.618Z,10.53
2023-02-11T16:54:16.272Z,10.48
2023-02-11T16:56:37.858Z,10.48
2023-02-11T16:58:59.550Z,10.51
2023-02-11T17:01:21.333Z,10.50
2023-02-11T17:03:43.824Z,10.50
2023-02-11T17:06:10.411Z,10.49
2023-02-11T17:08:32.014Z,10.44
2023-02-11T17:10:53.938Z,10.44
2023-02-11T17:13:15.853Z,10.42
2023-02-11T17:15:37.493Z,10.41
2023-02-11T17:17:59.361Z,10.41
2023-02-11T17:20:21.265Z,10.40
2023-02-11T17:22:42.942Z,10.37
2023-02-11T17:25:04.768Z,10.33
2023-02-11T17:27:26.426Z,10.30
2023-02-11T17:29:48.012Z,10.23
2023-02-11T17:32:09.752Z,10.17
2023-02-11T17:34:32.381Z,10.08
2023-02-11T17:36:54.092Z,10.07
2023-02-11T17:39:16.323Z,10.01
2023-02-11T17:41:40.090Z,9.99
2023-02-11T17:44:01.752Z,10.02
2023-02-11T17:46:23.668Z,10.03
2023-02-11T17:48:45.734Z,10.00
2023-02-11T17:51:25.813Z,9.97
2023-02-11T17:53:47.621Z,9.94
2023-02-11T17:56:10.251Z,9.91
2023-02-11T17:58:32.313Z,9.89
2023-02-11T18:00:59.049Z,9.85
2023-02-11T18:03:20.669Z,9.82
2023-02-11T18:05:42.392Z,9.77
2023-02-11T18:08:06.508Z,9.74
2023-02-11T18:10:28.486Z,9.68
2023-02-11T18:12:50.150Z,9.67
2023-02-11T18:15:12.332Z,9.64
2023-02-11T18:17:33.991Z,9.63
2023-02-11T18:19:57.496Z,9.63
2023-02-11T18:22:19.117Z,9.61
2023-02-11T18:24:41.986Z,9.59
2023-02-11T18:27:03.652Z,9.60
2023-02-11T18:29:26.183Z,9.59
2023-02-11T18:31:47.848Z,9.58
2023-02-11T18:34:10.708Z,9.63
2023-02-11T18:36:33.809Z,9.62
2023-02-11T18:38:57.034Z,9.58
2023-02-11T18:41:18.688Z,9.58
2023-02-11T18:43:40.778Z,9.60
2023-02-11T18:46:09.369Z,9.61
2023-02-11T18:48:30.969Z,9.61
2023-02-11T18:50:54.353Z,9.61
2023-02-11T18:53:16.004Z,9.64
2023-02-11T18:55:43.047Z,9.62
2023-02-11T18:58:04.632Z,9.59
2023-02-11T19:00:27.980Z,9.59
2023-02-11T19:02:49.675Z,9.57
2023-02-11T19:05:11.810Z,9.57
2023-02-11T19:07:33.600Z,9.55
2023-02-11T19:09:55.193Z,9.56
2023-02-11T19:12:16.947Z,9.58
2023-02-11T19:14:38.790Z,9.59
2023-02-11T19:17:04.913Z,9.59
2023-02-11T19:19:30.534Z,9.58
2023-02-11T19:21:52.367Z,9.56
2023-02-11T19:24:18.788Z,9.57
2023-02-11T19:26:40.366Z,9.57
2023-02-11T19:29:02.413Z,9.58
2023-02-11T19:31:24.481Z,9.58
2023-02-11T19:33:46.959Z,9.57
2023-02-11T19:36:16.112Z,9.58
2023-02-11T19:38:38.428Z,9.59
2023-02-11T19:41:00.170Z,9.60
2023-02-11T19:43:22.544Z,9.62
2023-02-11T19:45:44.206Z,9.64
2023-02-11T19:48:05.981Z,9.65
2023-02-11T19:50:27.604Z,9.64
2023-02-11T19:52:49.311Z,9.64
2023-02-11T19:55:10.970Z,9.66
2023-02-11T19:57:32.739Z,9.67
2023-02-11T19:59:55.032Z,9.67
2023-02-11T20:02:16.708Z,9.66
2023-02-11T20:04:39.458Z,9.68
2023-02-11T20:07:01.177Z,9.69
2023-02-11T20:09:22.887Z,9.70
2023-02-11T20:11:44.830Z,9.69
2023-02-11T20:14:06.886Z,9.67
2023-02-11T20:16:47.024Z,9.65
2023-02-11T20:19:14.814Z,9.62
2023-02-11T20:21:36.409Z,9.60
2023-02-11T20:23:59.373Z,9.59
2023-02-11T20:26:28.483Z,9.59
2023-02-11T20:28:52.680Z,9.60
2023-02-11T20:31:16.306Z,9.62
2023-02-11T20:33:39.158Z,9.63
2023-02-11T20:36:05.022Z,9.65
2023-02-11T20:38:27.201Z,9.65
2023-02-11T20:40:49.373Z,9.66
2023-02-11T20:43:10.990Z,9.68
2023-02-11T20:45:35.309Z,9.69
2023-02-11T20:47:56.986Z,9.68
2023-02-11T20:50:19.507Z,9.69
2023-02-11T20:52:41.223Z,9.70
2023-02-11T20:55:02.854Z,9.72
2023-02-11T20:57:24.473Z,9.73
2023-02-11T20:59:46.208Z,9.75
2023-02-11T21:02:10.305Z,9.74
2023-02-11T21:04:32.655Z,9.74
2023-02-11T21:06:58.972Z,9.74
2023-02-11T21:09:29.112Z,9.74
2023-02-11T21:11:53.095Z,9.72
2023-02-11T21:14:15.788Z,9.70
2023-02-11T21:16:38.494Z,9.68
2023-02-11T21:19:00.651Z,9.67
2023-02-11T21:21:23.087Z,9.67
2023-02-11T21:23:45.554Z,9.64
2023-02-11T21:26:08.857Z,9.62
2023-02-11T21:28:30.577Z,9.60
2023-02-11T21:30:57.149Z,9.61
2023-02-11T21:33:19.152Z,9.58
2023-02-11T21:35:40.754Z,9.58
2023-02-11T21:38:03.059Z,9.57
2023-02-11T21:40:27.427Z,9.56
2023-02-11T21:42:49.061Z,9.55
2023-02-11T21:45:10.762Z,9.55
2023-02-11T21:47:32.707Z,9.55
2023-02-11T21:49:54.364Z,9.54
2023-02-11T21:52:16.080Z,9.53
2023-02-11T21:54:37.654Z,9.52
2023-02-11T21:57:02.936Z,9.52
2023-02-11T21:59:24.559Z,9.51
2023-02-11T22:01:46.562Z,9.51
2023-02-11T22:04:09.488Z,9.49
2023-02-11T22:06:34.659Z,9.45
2023-02-11T22:08:57.534Z,9.44
2023-02-11T22:11:20.248Z,9.41
2023-02-11T22:13:42.772Z,9.40
2023-02-11T22:16:09.498Z,9.39
2023-02-11T22:18:32.217Z,9.38
2023-02-11T22:21:11.908Z,9.37
2023-02-11T22:23:34.294Z,9.33
2023-02-11T22:25:57.285Z,9.31
2023-02-11T22:28:19.000Z,9.32
2023-02-11T22:30:40.649Z,9.29
2023-02-11T22:33:04.085Z,9.31
2023-02-11T22:35:25.754Z,9.31
2023-02-11T22:37:47.351Z,9.30
2023-02-11T22:40:09.485Z,9.30
2023-02-11T22:42:31.077Z,9.30
2023-02-11T22:44:52.748Z,9.29
2023-02-11T22:47:14.303Z,9.29
2023-02-11T22:49:36.015Z,9.27
2023-02-11T22:51:57.793Z,9.26
2023-02-11T22:54:19.433Z,9.26
2023-02-11T22:56:41.559Z,9.24
2023-02-11T22:59:08.578Z,9.24
2023-02-11T23:01:31.669Z,9.24
2023-02-11T23:03:53.438Z,9.24
2023-02-11T23:06:15.640Z,9.23
2023-02-11T23:08:39.975Z,9.23
2023-02-11T23:11:13.043Z,9.25
2023-02-11T23:13:38.349Z,9.21
2023-02-11T23:16:07.549Z,9.18
2023-02-11T23:18:29.205Z,9.18
2023-02-11T23:20:50.840Z,9.18
2023-02-11T23:23:12.614Z,9.17
2023-02-11T23:25:34.639Z,9.18
2023-02-11T23:27:56.354Z,9.19
2023-02-11T23:30:18.701Z,9.19
2023-02-11T23:32:40.835Z,9.16
2023-02-11T23:35:02.470Z,9.17
2023-02-11T23:37:24.148Z,9.17
2023-02-11T23:39:45.797Z,9.17
2023-02-11T23:42:07.443Z,9.19
2023-02-11T23:44:29.181Z,9.17
2023-02-11T23:46:50.894Z,9.18
2023-02-11T23:49:13.064Z,9.18
2023-02-11T23:51:34.756Z,9.19
2023-02-11T23:53:56.495Z,9.19
2023-02-11T23:56:27.683Z,9.19
2023-02-11T23:58:51.385Z,9.20
